createdAt,value
2022-10-28T00:03:02.539Z,10.40
2022-10-28T00:08:04.498Z,10.30
2022-10-28T00:13:06.235Z,10.30
2022-10-28T00:18:08.107Z,10.30
2022-10-28T00:23:09.816Z,10.20
2022-10-28T00:28:11.520Z,10.20
2022-10-28T00:33:13.222Z,10.20
2022-10-28T00:38:14.926Z,10.20
2022-10-28T00:43:16.676Z,10.20
2022-10-28T00:48:18.896Z,10.20
2022-10-28T00:53:26.566Z,10.20
2022-10-28T00:58:29.330Z,10.10
2022-10-28T01:03:31.335Z,10.20
2022-10-28T01:08:33.262Z,10.20
2022-10-28T01:13:40.842Z,10.20
2022-10-28T01:18:45.355Z,10.30
2022-10-28T01:24:11.194Z,10.20
2022-10-28T01:29:35.679Z,10.20
2022-10-28T01:35:01.098Z,10.20
2022-10-28T01:40:46.709Z,10.10
2022-10-28T01:45:57.861Z,10.10
2022-10-28T01:51:08.378Z,10.00
2022-10-28T01:56:16.264Z,10.00
2022-10-28T02:01:19.290Z,10.00
2022-10-28T02:06:23.955Z,10.00
2022-10-28T02:11:43.173Z,9.90
2022-10-28T02:17:21.086Z,9.90
2022-10-28T02:22:40.731Z,9.90
2022-10-28T02:28:06.346Z,9.80
2022-10-28T02:33:12.710Z,9.90
2022-10-28T02:38:19.738Z,9.80
2022-10-28T02:43:23.585Z,9.80
2022-10-28T02:48:40.032Z,9.80
2022-10-28T02:53:51.756Z,9.80
2022-10-28T02:58:53.540Z,9.80
2022-10-28T03:03:55.393Z,9.70
2022-10-28T03:08:57.257Z,9.80
2022-10-28T03:13:58.961Z,9.70
2022-10-28T03:19:01.400Z,9.60
2022-10-28T03:24:03.193Z,9.50
2022-10-28T03:29:04.959Z,9.50
2022-10-28T03:34:06.769Z,9.50
2022-10-28T03:39:08.533Z,9.60
2022-10-28T03:44:10.342Z,9.60
2022-10-28T03:49:12.393Z,9.60
2022-10-28T03:54:14.126Z,9.50
2022-10-28T03:59:19.255Z,9.60
2022-10-28T04:04:22.089Z,9.50
2022-10-28T04:09:23.827Z,9.50
2022-10-28T04:14:25.562Z,9.50
2022-10-28T04:19:27.483Z,9.50
2022-10-28T04:24:29.210Z,9.50
2022-10-28T04:29:33.093Z,9.50
2022-10-28T04:34:34.899Z,9.50
2022-10-28T04:39:36.683Z,9.40
2022-10-28T04:44:38.455Z,9.40
2022-10-28T04:49:40.196Z,9.50
2022-10-28T04:54:42.125Z,9.50
2022-10-28T04:59:43.937Z,9.50
2022-10-28T05:04:45.692Z,9.60
2022-10-28T05:09:47.414Z,9.50
2022-10-28T05:14:51.252Z,9.50
2022-10-28T05:19:54.907Z,9.50
2022-10-28T05:24:56.662Z,9.50
2022-10-28T05:29:58.422Z,9.60
2022-10-28T05:35:00.186Z,9.60
2022-10-28T05:40:02.037Z,9.60
2022-10-28T05:45:04.158Z,9.60
2022-10-28T05:50:06.243Z,9.60
2022-10-28T05:55:08.269Z,9.60
2022-10-28T06:00:10.819Z,9.70
2022-10-28T06:05:15.628Z,9.70
2022-10-28T06:10:17.490Z,9.80
2022-10-28T06:15:17.687Z,9.80
2022-10-28T06:20:19.706Z,9.90
2022-10-28T06:25:22.517Z,9.90
2022-10-28T06:30:25.871Z,9.90
2022-10-28T06:35:27.646Z,10.00
2022-10-28T06:40:29.426Z,10.00
2022-10-28T06:45:33.659Z,10.10
2022-10-28T06:50:38.304Z,10.20
2022-10-28T06:55:40.061Z,10.30
2022-10-28T07:00:41.777Z,10.50
2022-10-28T07:05:43.572Z,10.70
2022-10-28T07:10:52.700Z,10.90
2022-10-28T07:15:55.926Z,11.10
2022-10-28T07:21:01.910Z,11.30
2022-10-28T07:26:03.799Z,11.40
2022-10-28T07:31:05.725Z,11.50
2022-10-28T07:36:07.860Z,11.70
2022-10-28T07:41:10.536Z,11.80
2022-10-28T07:46:12.265Z,12.00
2022-10-28T07:51:15.227Z,12.20
2022-10-28T07:56:17.103Z,12.40
2022-10-28T08:01:20.863Z,12.60
2022-10-28T08:06:22.699Z,12.90
2022-10-28T08:11:24.870Z,13.20
2022-10-28T08:16:28.994Z,13.40
2022-10-28T08:21:30.803Z,13.70
2022-10-28T08:26:32.524Z,14.00
2022-10-28T08:31:34.599Z,14.20
2022-10-28T08:36:36.517Z,14.50
2022-10-28T08:41:52.569Z,14.60
2022-10-28T08:47:15.392Z,14.80
2022-10-28T08:52:33.014Z,15.00
2022-10-28T08:57:39.403Z,15.20
2022-10-28T09:02:50.704Z,15.40
2022-10-28T09:07:55.885Z,15.40
2022-10-28T09:13:17.411Z,15.50
2022-10-28T09:18:29.461Z,15.50
2022-10-28T09:23:37.515Z,15.40
2022-10-28T09:28:59.078Z,15.40
2022-10-28T09:34:21.740Z,15.40
2022-10-28T09:39:29.450Z,15.60
2022-10-28T09:44:39.215Z,15.70
2022-10-28T09:49:42.006Z,15.80
2022-10-28T09:54:51.881Z,15.80
2022-10-28T09:59:54.422Z,15.90
2022-10-28T10:05:02.240Z,15.90
2022-10-28T10:10:24.907Z,16.00
2022-10-28T10:15:36.171Z,16.00
2022-10-28T10:21:01.648Z,16.10
2022-10-28T10:26:12.537Z,16.10
2022-10-28T10:31:27.670Z,16.20
2022-10-28T10:36:35.481Z,16.20
2022-10-28T10:41:43.792Z,16.30
2022-10-28T10:46:47.076Z,16.30
2022-10-28T10:51:54.284Z,16.30
2022-10-28T10:57:20.736Z,16.40
2022-10-28T11:02:36.704Z,16.40
2022-10-28T11:07:46.282Z,16.30
2022-10-28T11:12:56.589Z,16.40
2022-10-28T11:18:17.354Z,16.40
2022-10-28T11:23:46.523Z,16.50
2022-10-28T11:29:08.754Z,16.70
2022-10-28T11:34:35.764Z,16.70
2022-10-28T11:40:08.283Z,16.80
2022-10-28T11:45:37.313Z,17.00
2022-10-28T11:50:44.786Z,17.10
2022-10-28T11:56:04.690Z,17.20
2022-10-28T12:01:22.337Z,17.50
2022-10-28T12:06:55.288Z,17.90
2022-10-28T12:12:16.845Z,18.20
2022-10-28T12:17:58.534Z,18.50
2022-10-28T12:23:38.881Z,18.80
2022-10-28T12:28:52.395Z,18.90
2022-10-28T12:34:02.407Z,19.00
2022-10-28T12:39:15.882Z,19.20
2022-10-28T12:44:21.694Z,19.30
2022-10-28T12:49:52.406Z,19.40
2022-10-28T13:00:33.370Z,19.40
2022-10-28T13:05:41.833Z,19.30
2022-10-28T13:10:55.973Z,19.00
2022-10-28T13:16:01.099Z,18.80
2022-10-28T13:21:09.929Z,18.70
2022-10-28T13:26:28.769Z,18.80
2022-10-28T13:31:46.963Z,18.90
2022-10-28T13:37:03.808Z,18.80
2022-10-28T13:42:15.060Z,18.70
2022-10-28T13:47:17.185Z,18.50
2022-10-28T13:52:21.165Z,18.40
2022-10-28T13:57:33.244Z,18.20
2022-10-28T14:03:07.158Z,18.00
2022-10-28T14:08:34.779Z,17.90
2022-10-28T14:14:02.677Z,17.70
2022-10-28T14:19:11.737Z,17.60
2022-10-28T14:24:37.134Z,17.50
2022-10-28T14:29:57.688Z,17.60
2022-10-28T14:35:04.087Z,17.50
2022-10-28T14:40:19.809Z,17.40
2022-10-28T14:45:40.763Z,17.30
2022-10-28T14:50:50.271Z,17.10
2022-10-28T14:56:05.961Z,17.00
2022-10-28T15:01:18.381Z,16.90
2022-10-28T15:06:39.698Z,16.70
2022-10-28T15:11:45.493Z,16.60
2022-10-28T15:16:49.799Z,16.40
2022-10-28T15:22:06.861Z,16.30
2022-10-28T15:27:13.898Z,16.20
2022-10-28T15:32:22.493Z,16.10
2022-10-28T15:37:30.477Z,16.00
2022-10-28T15:43:04.743Z,15.90
2022-10-28T15:48:16.822Z,15.80
2022-10-28T15:53:37.535Z,15.60
2022-10-28T15:58:44.037Z,15.60
2022-10-28T16:03:48.185Z,15.40
2022-10-28T16:09:09.377Z,15.30
2022-10-28T16:14:38.390Z,15.10
2022-10-28T16:19:43.289Z,15.00
2022-10-28T16:24:45.720Z,14.90
2022-10-28T16:29:48.001Z,14.70
2022-10-28T16:34:49.793Z,14.60
2022-10-28T16:39:52.004Z,14.50
2022-10-28T16:44:53.787Z,14.40
2022-10-28T16:49:57.646Z,14.30
2022-10-28T16:55:00.969Z,14.20
2022-10-28T17:00:02.840Z,14.10
2022-10-28T17:05:05.096Z,14.10
2022-10-28T17:10:07.656Z,14.00
2022-10-28T17:15:10.212Z,14.00
2022-10-28T17:20:12.090Z,14.00
2022-10-28T17:25:13.920Z,13.90
2022-10-28T17:30:17.366Z,13.80
2022-10-28T17:35:20.796Z,13.70
2022-10-28T17:40:22.568Z,13.70
2022-10-28T17:45:24.301Z,13.70
2022-10-28T17:50:26.071Z,13.60
2022-10-28T17:55:27.963Z,13.50
2022-10-28T18:00:29.721Z,13.50
2022-10-28T18:05:31.472Z,13.30
2022-10-28T18:10:33.334Z,13.30
2022-10-28T18:15:37.088Z,13.20
2022-10-28T18:20:38.812Z,13.10
2022-10-28T18:25:40.673Z,13.00
2022-10-28T18:30:42.458Z,12.90
2022-10-28T18:40:53.047Z,12.70
2022-10-28T18:45:59.808Z,12.70
2022-10-28T18:51:06.568Z,12.60
2022-10-28T18:56:14.897Z,12.50
2022-10-28T19:01:19.649Z,12.40
2022-10-28T19:06:22.503Z,12.30
2022-10-28T19:11:29.878Z,12.30
2022-10-28T19:16:33.737Z,12.20
2022-10-28T19:21:35.655Z,12.10
2022-10-28T19:26:39.251Z,12.10
2022-10-28T19:31:41.862Z,12.10
2022-10-28T19:36:43.633Z,12.10
2022-10-28T19:41:45.537Z,12.10
2022-10-28T19:46:47.257Z,12.10
2022-10-28T19:51:48.992Z,12.10
2022-10-28T19:56:51.054Z,12.10
2022-10-28T20:01:52.826Z,12.10
2022-10-28T20:06:54.624Z,12.10
2022-10-28T20:11:56.392Z,12.10
2022-10-28T20:17:04.014Z,12.10
2022-10-28T20:22:08.474Z,12.20
2022-10-28T20:27:10.327Z,12.10
2022-10-28T20:32:12.105Z,12.20
2022-10-28T20:37:13.819Z,12.20
2022-10-28T20:42:15.561Z,12.20
2022-10-28T20:47:17.723Z,12.20
2022-10-28T20:52:20.211Z,12.20
2022-10-28T20:57:22.104Z,12.20
2022-10-28T21:02:24.012Z,12.20
2022-10-28T21:07:25.860Z,12.30
2022-10-28T21:12:27.703Z,12.40
2022-10-28T21:17:29.517Z,12.50
2022-10-28T21:22:32.351Z,12.50
2022-10-28T21:27:34.276Z,12.50
2022-10-28T21:32:37.226Z,12.50
2022-10-28T21:37:39.033Z,12.60
2022-10-28T21:42:40.928Z,12.60
2022-10-28T21:47:42.706Z,12.60
2022-10-28T21:52:44.479Z,12.50
2022-10-28T21:57:46.270Z,12.50
2022-10-28T22:02:48.478Z,12.50
2022-10-28T22:07:50.560Z,12.50
2022-10-28T22:12:52.283Z,12.50
2022-10-28T22:17:54.848Z,12.50
2022-10-28T22:22:57.122Z,12.50
2022-10-28T22:27:59.129Z,12.50
2022-10-28T22:33:00.937Z,12.50
2022-10-28T22:38:02.755Z,12.50
2022-10-28T22:43:04.477Z,12.40
2022-10-28T22:48:06.724Z,12.50
2022-10-28T22:53:08.441Z,12.40
2022-10-28T22:58:10.544Z,12.50
2022-10-28T23:03:12.937Z,12.50
2022-10-28T23:08:16.081Z,12.40
2022-10-28T23:13:17.918Z,12.40
2022-10-28T23:18:19.965Z,12.50
2022-10-28T23:23:21.731Z,12.50
2022-10-28T23:28:24.532Z,12.50
2022-10-28T23:33:27.700Z,12.50
2022-10-28T23:38:29.780Z,12.40
2022-10-28T23:43:32.128Z,12.40
2022-10-28T23:48:33.880Z,12.40
2022-10-28T23:53:35.622Z,12.40
2022-10-28T23:58:37.367Z,12.30
